Alameda, CA

10:53 PM PST on February 27, 2015 (GMT -0800)
Shoreline | Change Station
CLOSE
Current Station
Personal Weather Station
Location: Alameda, CA
Elevation: 10 ft
Nearby Weather Stations

Elev 10 ft 37.76 °N, 122.26 °W | Updated 12 seconds ago

Partly Cloudy
Partly Cloudy
52.7 °F
Feels Like 52.7 °F
N
2.9
Wind Variable Wind from SE
Gusts 4.9 mph

Today
High -- | Low -- °F
--% Chance of Precip.
Yesterday
High -- | Low -- °F
Precip. -- in
6:43 AM 6:00 PM
Waxing Gibbous, 75% visible
Pressure 29.76 in
Visibility 10.0 miles
Clouds Few 1000 ft
Scattered Clouds 2000 ft
Dew Point 44 °F
Humidity 72%
Rainfall 0.00 in
Snow Depth Not available.
UV 0 out of 12
Pollen 7.80 out of 12
Air Quality Not available.
Flu Activity Not available.
METAR KOAK 280553Z 29018G24KT 10SM FEW010 SCT020 12/06 A2976 RMK AO2 PK WND 29026/0459 SLP077 T01170056 10150 20117 51006

More Conditions Fewer Conditions

Pressure 29.76 in
Visibility 10.0 miles
Clouds Few 1000 ft
Scattered Clouds 2000 ft
Dew Point 44 °F
Humidity 72%
Rainfall 0.00 in
Snow Depth Not available.
UV 0 out of 12
Pollen 7.80 out of 12
Air Quality Not available.
Flu Activity Not available.
METAR KOAK 280553Z 29018G24KT 10SM FEW010 SCT020 12/06 A2976 RMK AO2 PK WND 29026/0459 SLP077 T01170056 10150 20117 51006

More Conditions Fewer Conditions

10-Day Weather Forecast

Almanac

Astronomy

Feb. 27, 2015 Rise Set
Actual Time
Civil Twilight
Nautical Twilight
Astronomical Twilight
Moon
Length of Visible Light
Length of Day
Tomorrow will be .
, % of the Moon is Illuminated

Today's Extremes

State Highs State Lows

Community

WunderPhotos

Upload Photos

1,800,978 photos uploaded!

WunderBlogs® & News

Nearby

Air Quality

  Air Quality AQ Index Pollutant
Not available.

Snow Depth

Station Depth Elevation

Earthquake Activity

City Distance Mag. Time & Date
Minimum magnitude displayed is 2.5.

Coastal Water Temperatures

Place Temperature

Nearby Weather Stations